sensor_id;sensor_type;location;lat;lon;timestamp;P1;durP1;ratioP1;P2;durP2;ratioP2
37409;SDS011;23275;48.914;12.566;2023-06-22T00:02:17;11.43;;;5.72;;
37409;SDS011;23275;48.914;12.566;2023-06-22T00:04:43;7.65;;;4.78;;
37409;SDS011;23275;48.914;12.566;2023-06-22T00:07:09;11.98;;;6.40;;
37409;SDS011;23275;48.914;12.566;2023-06-22T00:09:35;8.20;;;5.25;;
37409;SDS011;23275;48.914;12.566;2023-06-22T00:12:00;8.70;;;5.57;;
37409;SDS011;23275;48.914;12.566;2023-06-22T00:14:26;14.82;;;7.32;;
37409;SDS011;23275;48.914;12.566;2023-06-22T00:16:52;14.13;;;7.32;;
37409;SDS011;23275;48.914;12.566;2023-06-22T00:19:22;12.20;;;7.35;;
37409;SDS011;23275;48.914;12.566;2023-06-22T00:21:48;15.55;;;7.25;;
37409;SDS011;23275;48.914;12.566;2023-06-22T00:24:20;15.18;;;6.78;;
37409;SDS011;23275;48.914;12.566;2023-06-22T00:26:47;16.58;;;7.20;;
37409;SDS011;23275;48.914;12.566;2023-06-22T00:29:13;10.27;;;6.57;;
37409;SDS011;23275;48.914;12.566;2023-06-22T00:31:39;18.33;;;7.85;;
37409;SDS011;23275;48.914;12.566;2023-06-22T00:34:04;10.60;;;6.78;;
37409;SDS011;23275;48.914;12.566;2023-06-22T00:36:31;19.42;;;7.30;;
37409;SDS011;23275;48.914;12.566;2023-06-22T00:38:57;12.07;;;6.38;;
37409;SDS011;23275;48.914;12.566;2023-06-22T00:41:22;15.98;;;7.03;;
37409;SDS011;23275;48.914;12.566;2023-06-22T00:43:48;12.35;;;7.35;;
37409;SDS011;23275;48.914;12.566;2023-06-22T00:46:14;17.50;;;9.07;;
37409;SDS011;23275;48.914;12.566;2023-06-22T00:48:40;17.58;;;7.25;;
37409;SDS011;23275;48.914;12.566;2023-06-22T00:51:08;15.15;;;7.47;;
37409;SDS011;23275;48.914;12.566;2023-06-22T00:53:35;20.05;;;9.27;;
37409;SDS011;23275;48.914;12.566;2023-06-22T00:56:02;17.70;;;8.32;;
37409;SDS011;23275;48.914;12.566;2023-06-22T00:58:28;13.00;;;7.70;;
37409;SDS011;23275;48.914;12.566;2023-06-22T01:00:54;14.88;;;6.95;;
37409;SDS011;23275;48.914;12.566;2023-06-22T01:03:20;13.95;;;7.22;;
37409;SDS011;23275;48.914;12.566;2023-06-22T01:05:45;12.55;;;6.22;;
37409;SDS011;23275;48.914;12.566;2023-06-22T01:08:18;8.80;;;5.75;;
37409;SDS011;23275;48.914;12.566;2023-06-22T01:13:46;20.27;;;6.45;;
37409;SDS011;23275;48.914;12.566;2023-06-22T01:16:29;11.10;;;6.88;;
37409;SDS011;23275;48.914;12.566;2023-06-22T01:18:57;16.95;;;6.40;;
37409;SDS011;23275;48.914;12.566;2023-06-22T01:21:25;14.57;;;5.68;;
37409;SDS011;23275;48.914;12.566;2023-06-22T01:29:39;10.30;;;6.15;;
37409;SDS011;23275;48.914;12.566;2023-06-22T01:32:07;15.25;;;6.95;;
37409;SDS011;23275;48.914;12.566;2023-06-22T01:34:34;12.60;;;6.15;;
37409;SDS011;23275;48.914;12.566;2023-06-22T01:37:01;14.38;;;6.07;;
37409;SDS011;23275;48.914;12.566;2023-06-22T01:39:28;9.25;;;5.05;;
37409;SDS011;23275;48.914;12.566;2023-06-22T01:41:54;9.82;;;6.28;;
37409;SDS011;23275;48.914;12.566;2023-06-22T01:44:20;11.15;;;6.90;;
37409;SDS011;23275;48.914;12.566;2023-06-22T01:46:47;10.52;;;5.57;;
37409;SDS011;23275;48.914;12.566;2023-06-22T01:49:14;12.00;;;5.70;;
37409;SDS011;23275;48.914;12.566;2023-06-22T01:51:40;11.43;;;5.15;;
37409;SDS011;23275;48.914;12.566;2023-06-22T01:54:06;9.75;;;6.50;;
37409;SDS011;23275;48.914;12.566;2023-06-22T01:56:33;14.20;;;5.70;;
37409;SDS011;23275;48.914;12.566;2023-06-22T02:01:50;21.17;;;5.75;;
37409;SDS011;23275;48.914;12.566;2023-06-22T02:04:27;9.57;;;5.32;;
37409;SDS011;23275;48.914;12.566;2023-06-22T02:06:58;11.32;;;5.18;;
37409;SDS011;23275;48.914;12.566;2023-06-22T02:09:26;11.55;;;5.90;;
37409;SDS011;23275;48.914;12.566;2023-06-22T02:11:55;10.32;;;5.10;;
37409;SDS011;23275;48.914;12.566;2023-06-22T02:14:21;13.18;;;5.18;;
37409;SDS011;23275;48.914;12.566;2023-06-22T02:16:48;9.57;;;5.63;;
37409;SDS011;23275;48.914;12.566;2023-06-22T02:19:15;8.52;;;5.30;;
37409;SDS011;23275;48.914;12.566;2023-06-22T02:21:43;10.13;;;5.90;;
37409;SDS011;23275;48.914;12.566;2023-06-22T02:24:09;11.60;;;5.65;;
37409;SDS011;23275;48.914;12.566;2023-06-22T02:26:35;7.95;;;5.70;;
37409;SDS011;23275;48.914;12.566;2023-06-22T02:29:03;9.15;;;5.50;;
37409;SDS011;23275;48.914;12.566;2023-06-22T02:31:28;11.02;;;5.78;;
37409;SDS011;23275;48.914;12.566;2023-06-22T02:33:58;10.60;;;6.45;;
37409;SDS011;23275;48.914;12.566;2023-06-22T02:36:25;12.23;;;6.40;;
37409;SDS011;23275;48.914;12.566;2023-06-22T02:38:52;11.10;;;6.30;;
37409;SDS011;23275;48.914;12.566;2023-06-22T02:41:19;10.23;;;5.57;;
37409;SDS011;23275;48.914;12.566;2023-06-22T02:43:45;11.45;;;5.95;;
37409;SDS011;23275;48.914;12.566;2023-06-22T02:46:11;8.63;;;5.65;;
37409;SDS011;23275;48.914;12.566;2023-06-22T02:48:38;9.77;;;5.43;;
37409;SDS011;23275;48.914;12.566;2023-06-22T02:51:04;13.80;;;6.75;;
37409;SDS011;23275;48.914;12.566;2023-06-22T02:53:30;10.57;;;5.97;;
37409;SDS011;23275;48.914;12.566;2023-06-22T02:55:55;12.52;;;5.38;;
37409;SDS011;23275;48.914;12.566;2023-06-22T02:58:21;9.00;;;5.45;;
37409;SDS011;23275;48.914;12.566;2023-06-22T03:00:47;10.63;;;5.75;;
37409;SDS011;23275;48.914;12.566;2023-06-22T03:03:12;7.90;;;5.40;;
37409;SDS011;23275;48.914;12.566;2023-06-22T03:05:38;8.48;;;5.55;;
37409;SDS011;23275;48.914;12.566;2023-06-22T03:08:05;12.05;;;5.82;;
37409;SDS011;23275;48.914;12.566;2023-06-22T03:10:30;11.88;;;6.18;;
37409;SDS011;23275;48.914;12.566;2023-06-22T03:12:56;9.63;;;6.53;;
37409;SDS011;23275;48.914;12.566;2023-06-22T03:15:21;10.70;;;5.40;;
37409;SDS011;23275;48.914;12.566;2023-06-22T03:17:47;9.45;;;6.20;;
37409;SDS011;23275;48.914;12.566;2023-06-22T03:20:12;11.20;;;5.43;;
37409;SDS011;23275;48.914;12.566;2023-06-22T03:22:39;7.93;;;6.03;;
37409;SDS011;23275;48.914;12.566;2023-06-22T03:25:06;8.57;;;5.40;;
37409;SDS011;23275;48.914;12.566;2023-06-22T03:27:34;7.97;;;5.40;;
37409;SDS011;23275;48.914;12.566;2023-06-22T03:30:01;11.88;;;5.95;;
37409;SDS011;23275;48.914;12.566;2023-06-22T03:32:27;12.40;;;6.10;;
37409;SDS011;23275;48.914;12.566;2023-06-22T03:34:53;9.05;;;6.40;;
37409;SDS011;23275;48.914;12.566;2023-06-22T03:37:18;8.05;;;5.32;;
37409;SDS011;23275;48.914;12.566;2023-06-22T03:39:44;6.80;;;5.40;;
37409;SDS011;23275;48.914;12.566;2023-06-22T03:42:09;9.35;;;5.72;;
37409;SDS011;23275;48.914;12.566;2023-06-22T03:44:35;11.10;;;5.88;;
37409;SDS011;23275;48.914;12.566;2023-06-22T03:47:02;8.45;;;5.35;;
37409;SDS011;23275;48.914;12.566;2023-06-22T03:49:28;6.88;;;5.15;;
37409;SDS011;23275;48.914;12.566;2023-06-22T03:51:54;6.63;;;4.50;;
37409;SDS011;23275;48.914;12.566;2023-06-22T03:54:19;7.18;;;5.00;;
37409;SDS011;23275;48.914;12.566;2023-06-22T03:56:45;5.97;;;4.10;;
37409;SDS011;23275;48.914;12.566;2023-06-22T03:59:10;5.88;;;3.60;;
37409;SDS011;23275;48.914;12.566;2023-06-22T04:01:36;9.15;;;3.97;;
37409;SDS011;23275;48.914;12.566;2023-06-22T04:04:01;10.70;;;4.68;;
37409;SDS011;23275;48.914;12.566;2023-06-22T04:06:27;12.05;;;5.10;;
37409;SDS011;23275;48.914;12.566;2023-06-22T04:08:53;11.05;;;5.25;;
37409;SDS011;23275;48.914;12.566;2023-06-22T04:11:18;9.38;;;5.57;;
37409;SDS011;23275;48.914;12.566;2023-06-22T04:13:44;8.80;;;5.40;;
37409;SDS011;23275;48.914;12.566;2023-06-22T04:16:09;11.68;;;6.55;;
37409;SDS011;23275;48.914;12.566;2023-06-22T04:18:35;7.85;;;5.78;;
37409;SDS011;23275;48.914;12.566;2023-06-22T04:21:01;10.15;;;5.75;;
37409;SDS011;23275;48.914;12.566;2023-06-22T04:23:27;7.95;;;5.35;;
37409;SDS011;23275;48.914;12.566;2023-06-22T04:25:52;8.93;;;5.75;;
37409;SDS011;23275;48.914;12.566;2023-06-22T04:28:18;11.07;;;5.93;;
37409;SDS011;23275;48.914;12.566;2023-06-22T04:30:44;11.38;;;6.22;;
37409;SDS011;23275;48.914;12.566;2023-06-22T04:33:15;15.15;;;6.10;;
37409;SDS011;23275;48.914;12.566;2023-06-22T04:35:41;11.18;;;6.22;;
37409;SDS011;23275;48.914;12.566;2023-06-22T04:38:09;12.55;;;6.07;;
37409;SDS011;23275;48.914;12.566;2023-06-22T04:40:38;9.30;;;5.93;;
37409;SDS011;23275;48.914;12.566;2023-06-22T04:43:04;8.43;;;6.10;;
37409;SDS011;23275;48.914;12.566;2023-06-22T04:45:32;10.98;;;6.68;;
37409;SDS011;23275;48.914;12.566;2023-06-22T04:47:58;12.98;;;5.88;;
37409;SDS011;23275;48.914;12.566;2023-06-22T04:50:24;9.25;;;6.40;;
37409;SDS011;23275;48.914;12.566;2023-06-22T04:52:50;9.02;;;5.80;;
37409;SDS011;23275;48.914;12.566;2023-06-22T04:55:16;9.40;;;6.47;;
37409;SDS011;23275;48.914;12.566;2023-06-22T04:57:43;11.38;;;6.32;;
37409;SDS011;23275;48.914;12.566;2023-06-22T05:00:14;11.23;;;6.13;;
37409;SDS011;23275;48.914;12.566;2023-06-22T05:02:47;9.55;;;6.10;;
37409;SDS011;23275;48.914;12.566;2023-06-22T05:05:13;8.20;;;5.82;;
37409;SDS011;23275;48.914;12.566;2023-06-22T05:07:43;8.48;;;6.07;;
37409;SDS011;23275;48.914;12.566;2023-06-22T05:10:11;13.63;;;6.72;;
37409;SDS011;23275;48.914;12.566;2023-06-22T05:12:40;7.65;;;5.45;;
37409;SDS011;23275;48.914;12.566;2023-06-22T05:15:07;10.98;;;5.82;;
37409;SDS011;23275;48.914;12.566;2023-06-22T05:17:33;8.70;;;5.60;;
37409;SDS011;23275;48.914;12.566;2023-06-22T05:19:59;8.52;;;5.55;;
37409;SDS011;23275;48.914;12.566;2023-06-22T05:22:24;10.27;;;5.63;;
37409;SDS011;23275;48.914;12.566;2023-06-22T05:24:50;9.95;;;6.20;;
37409;SDS011;23275;48.914;12.566;2023-06-22T05:27:15;11.38;;;5.70;;
37409;SDS011;23275;48.914;12.566;2023-06-22T05:29:41;11.05;;;5.57;;
37409;SDS011;23275;48.914;12.566;2023-06-22T05:32:07;8.52;;;6.25;;
37409;SDS011;23275;48.914;12.566;2023-06-22T05:34:33;9.65;;;5.85;;
37409;SDS011;23275;48.914;12.566;2023-06-22T05:36:59;10.20;;;5.68;;
37409;SDS011;23275;48.914;12.566;2023-06-22T05:39:25;11.55;;;6.40;;
37409;SDS011;23275;48.914;12.566;2023-06-22T05:41:51;11.18;;;6.68;;
37409;SDS011;23275;48.914;12.566;2023-06-22T05:44:16;9.52;;;5.75;;
37409;SDS011;23275;48.914;12.566;2023-06-22T05:46:42;11.10;;;6.07;;
37409;SDS011;23275;48.914;12.566;2023-06-22T05:49:13;7.47;;;5.90;;
37409;SDS011;23275;48.914;12.566;2023-06-22T05:51:39;7.13;;;5.28;;
37409;SDS011;23275;48.914;12.566;2023-06-22T05:54:05;12.05;;;5.63;;
37409;SDS011;23275;48.914;12.566;2023-06-22T05:56:32;13.63;;;5.78;;
37409;SDS011;23275;48.914;12.566;2023-06-22T05:58:58;10.43;;;6.78;;
37409;SDS011;23275;48.914;12.566;2023-06-22T06:01:24;11.48;;;6.28;;
37409;SDS011;23275;48.914;12.566;2023-06-22T06:03:50;12.50;;;6.35;;
37409;SDS011;23275;48.914;12.566;2023-06-22T06:06:17;10.45;;;5.95;;
37409;SDS011;23275;48.914;12.566;2023-06-22T06:08:45;7.93;;;6.03;;
37409;SDS011;23275;48.914;12.566;2023-06-22T06:11:10;12.52;;;6.25;;
37409;SDS011;23275;48.914;12.566;2023-06-22T06:13:36;12.48;;;6.05;;
37409;SDS011;23275;48.914;12.566;2023-06-22T06:16:01;10.52;;;5.43;;
37409;SDS011;23275;48.914;12.566;2023-06-22T06:18:28;11.65;;;5.57;;
37409;SDS011;23275;48.914;12.566;2023-06-22T06:20:54;10.10;;;5.60;;
37409;SDS011;23275;48.914;12.566;2023-06-22T06:23:20;9.25;;;4.70;;
37409;SDS011;23275;48.914;12.566;2023-06-22T06:25:45;8.30;;;5.25;;
37409;SDS011;23275;48.914;12.566;2023-06-22T06:28:11;9.32;;;5.22;;
37409;SDS011;23275;48.914;12.566;2023-06-22T06:30:36;8.57;;;5.28;;
37409;SDS011;23275;48.914;12.566;2023-06-22T06:33:02;9.45;;;5.82;;
37409;SDS011;23275;48.914;12.566;2023-06-22T06:35:29;8.70;;;5.43;;
37409;SDS011;23275;48.914;12.566;2023-06-22T06:37:55;9.32;;;5.53;;
37409;SDS011;23275;48.914;12.566;2023-06-22T06:40:21;7.55;;;5.25;;
37409;SDS011;23275;48.914;12.566;2023-06-22T06:42:47;7.80;;;4.95;;
37409;SDS011;23275;48.914;12.566;2023-06-22T06:45:17;9.25;;;5.88;;
37409;SDS011;23275;48.914;12.566;2023-06-22T06:47:44;10.68;;;5.40;;
37409;SDS011;23275;48.914;12.566;2023-06-22T06:50:11;12.20;;;5.55;;
37409;SDS011;23275;48.914;12.566;2023-06-22T06:52:37;7.72;;;5.80;;
37409;SDS011;23275;48.914;12.566;2023-06-22T06:55:03;7.50;;;5.45;;
37409;SDS011;23275;48.914;12.566;2023-06-22T06:57:37;7.45;;;5.55;;
37409;SDS011;23275;48.914;12.566;2023-06-22T07:00:07;8.25;;;5.32;;
37409;SDS011;23275;48.914;12.566;2023-06-22T07:02:37;11.20;;;5.65;;
37409;SDS011;23275;48.914;12.566;2023-06-22T07:05:04;9.63;;;5.50;;
37409;SDS011;23275;48.914;12.566;2023-06-22T07:07:30;8.65;;;5.50;;
37409;SDS011;23275;48.914;12.566;2023-06-22T07:09:56;8.27;;;4.95;;
37409;SDS011;23275;48.914;12.566;2023-06-22T07:12:22;8.40;;;5.72;;
37409;SDS011;23275;48.914;12.566;2023-06-22T07:14:47;7.45;;;4.55;;
37409;SDS011;23275;48.914;12.566;2023-06-22T07:17:13;6.95;;;5.22;;
37409;SDS011;23275;48.914;12.566;2023-06-22T07:19:39;7.07;;;4.57;;
37409;SDS011;23275;48.914;12.566;2023-06-22T07:22:07;8.07;;;4.70;;
37409;SDS011;23275;48.914;12.566;2023-06-22T07:24:32;7.70;;;4.47;;
37409;SDS011;23275;48.914;12.566;2023-06-22T07:26:58;5.93;;;4.43;;
37409;SDS011;23275;48.914;12.566;2023-06-22T07:29:24;6.50;;;4.50;;
37409;SDS011;23275;48.914;12.566;2023-06-22T07:31:51;13.23;;;6.88;;
37409;SDS011;23275;48.914;12.566;2023-06-22T07:34:17;8.68;;;5.38;;
37409;SDS011;23275;48.914;12.566;2023-06-22T07:36:43;9.23;;;5.00;;
37409;SDS011;23275;48.914;12.566;2023-06-22T07:39:10;8.90;;;4.95;;
37409;SDS011;23275;48.914;12.566;2023-06-22T07:41:35;7.38;;;5.35;;
37409;SDS011;23275;48.914;12.566;2023-06-22T07:44:02;7.43;;;4.60;;
37409;SDS011;23275;48.914;12.566;2023-06-22T07:46:28;9.73;;;4.60;;
37409;SDS011;23275;48.914;12.566;2023-06-22T07:48:55;6.82;;;5.13;;
37409;SDS011;23275;48.914;12.566;2023-06-22T07:51:21;6.50;;;4.70;;
37409;SDS011;23275;48.914;12.566;2023-06-22T07:53:47;8.95;;;4.90;;
37409;SDS011;23275;48.914;12.566;2023-06-22T07:56:13;6.93;;;4.15;;
37409;SDS011;23275;48.914;12.566;2023-06-22T07:58:43;7.50;;;4.78;;
37409;SDS011;23275;48.914;12.566;2023-06-22T08:01:09;6.60;;;4.07;;
37409;SDS011;23275;48.914;12.566;2023-06-22T08:03:36;7.38;;;4.15;;
37409;SDS011;23275;48.914;12.566;2023-06-22T08:06:01;7.00;;;4.65;;
37409;SDS011;23275;48.914;12.566;2023-06-22T08:08:27;5.72;;;4.15;;
37409;SDS011;23275;48.914;12.566;2023-06-22T08:10:53;7.43;;;3.75;;
37409;SDS011;23275;48.914;12.566;2023-06-22T08:13:18;6.68;;;3.95;;
37409;SDS011;23275;48.914;12.566;2023-06-22T08:15:44;5.40;;;3.75;;
37409;SDS011;23275;48.914;12.566;2023-06-22T08:18:10;8.27;;;3.80;;
37409;SDS011;23275;48.914;12.566;2023-06-22T08:20:35;7.75;;;3.67;;
37409;SDS011;23275;48.914;12.566;2023-06-22T08:23:01;13.10;;;4.40;;
37409;SDS011;23275;48.914;12.566;2023-06-22T08:25:31;4.57;;;3.25;;
37409;SDS011;23275;48.914;12.566;2023-06-22T08:27:57;7.70;;;4.00;;
37409;SDS011;23275;48.914;12.566;2023-06-22T08:30:23;8.10;;;3.92;;
37409;SDS011;23275;48.914;12.566;2023-06-22T08:32:49;9.15;;;3.63;;
37409;SDS011;23275;48.914;12.566;2023-06-22T08:35:14;5.50;;;3.50;;
37409;SDS011;23275;48.914;12.566;2023-06-22T08:37:40;6.75;;;4.03;;
37409;SDS011;23275;48.914;12.566;2023-06-22T08:40:06;6.15;;;3.78;;
37409;SDS011;23275;48.914;12.566;2023-06-22T08:42:34;9.68;;;4.93;;
37409;SDS011;23275;48.914;12.566;2023-06-22T08:45:04;11.38;;;4.70;;
37409;SDS011;23275;48.914;12.566;2023-06-22T08:47:30;8.48;;;4.47;;
37409;SDS011;23275;48.914;12.566;2023-06-22T08:49:56;6.60;;;3.70;;
37409;SDS011;23275;48.914;12.566;2023-06-22T08:52:23;8.27;;;4.22;;
37409;SDS011;23275;48.914;12.566;2023-06-22T08:54:49;11.50;;;4.72;;
37409;SDS011;23275;48.914;12.566;2023-06-22T08:57:15;7.70;;;3.83;;
37409;SDS011;23275;48.914;12.566;2023-06-22T08:59:41;5.60;;;3.90;;
37409;SDS011;23275;48.914;12.566;2023-06-22T09:02:07;8.30;;;3.95;;
37409;SDS011;23275;48.914;12.566;2023-06-22T09:04:32;7.45;;;3.90;;
37409;SDS011;23275;48.914;12.566;2023-06-22T09:07:02;8.48;;;4.05;;
37409;SDS011;23275;48.914;12.566;2023-06-22T09:09:28;8.90;;;4.45;;
37409;SDS011;23275;48.914;12.566;2023-06-22T09:11:54;6.82;;;3.90;;
37409;SDS011;23275;48.914;12.566;2023-06-22T09:14:20;6.95;;;3.75;;
37409;SDS011;23275;48.914;12.566;2023-06-22T09:16:45;7.43;;;4.50;;
37409;SDS011;23275;48.914;12.566;2023-06-22T09:19:11;8.52;;;4.38;;
37409;SDS011;23275;48.914;12.566;2023-06-22T09:21:37;7.55;;;4.65;;
37409;SDS011;23275;48.914;12.566;2023-06-22T09:24:02;7.78;;;3.92;;
37409;SDS011;23275;48.914;12.566;2023-06-22T09:26:28;7.20;;;4.18;;
37409;SDS011;23275;48.914;12.566;2023-06-22T09:28:54;8.57;;;4.40;;
37409;SDS011;23275;48.914;12.566;2023-06-22T09:31:19;10.13;;;4.50;;
37409;SDS011;23275;48.914;12.566;2023-06-22T09:33:53;6.95;;;4.35;;
37409;SDS011;23275;48.914;12.566;2023-06-22T09:36:22;10.68;;;5.13;;
37409;SDS011;23275;48.914;12.566;2023-06-22T09:38:48;9.50;;;4.20;;
37409;SDS011;23275;48.914;12.566;2023-06-22T09:41:20;9.30;;;4.53;;
37409;SDS011;23275;48.914;12.566;2023-06-22T09:43:45;12.98;;;4.60;;
37409;SDS011;23275;48.914;12.566;2023-06-22T09:46:11;11.90;;;5.20;;
37409;SDS011;23275;48.914;12.566;2023-06-22T09:48:37;11.27;;;4.50;;
37409;SDS011;23275;48.914;12.566;2023-06-22T09:51:02;12.02;;;4.28;;
37409;SDS011;23275;48.914;12.566;2023-06-22T09:53:28;9.75;;;4.65;;
37409;SDS011;23275;48.914;12.566;2023-06-22T09:55:54;9.13;;;4.63;;
37409;SDS011;23275;48.914;12.566;2023-06-22T09:58:19;11.10;;;5.60;;
37409;SDS011;23275;48.914;12.566;2023-06-22T10:00:45;10.52;;;4.20;;
37409;SDS011;23275;48.914;12.566;2023-06-22T10:03:11;9.48;;;4.57;;
37409;SDS011;23275;48.914;12.566;2023-06-22T10:05:37;8.32;;;4.65;;
37409;SDS011;23275;48.914;12.566;2023-06-22T10:08:02;7.40;;;4.85;;
37409;SDS011;23275;48.914;12.566;2023-06-22T10:10:28;9.50;;;5.88;;
37409;SDS011;23275;48.914;12.566;2023-06-22T10:12:55;12.20;;;5.00;;
37409;SDS011;23275;48.914;12.566;2023-06-22T10:15:22;7.97;;;4.20;;
37409;SDS011;23275;48.914;12.566;2023-06-22T10:17:48;7.45;;;4.22;;
37409;SDS011;23275;48.914;12.566;2023-06-22T10:20:13;9.35;;;4.80;;
37409;SDS011;23275;48.914;12.566;2023-06-22T10:22:40;6.63;;;4.50;;
37409;SDS011;23275;48.914;12.566;2023-06-22T10:25:06;9.23;;;4.50;;
37409;SDS011;23275;48.914;12.566;2023-06-22T10:27:32;7.15;;;3.90;;
37409;SDS011;23275;48.914;12.566;2023-06-22T10:29:58;9.02;;;4.45;;
37409;SDS011;23275;48.914;12.566;2023-06-22T10:32:24;8.63;;;4.95;;
37409;SDS011;23275;48.914;12.566;2023-06-22T10:34:49;8.90;;;4.65;;
37409;SDS011;23275;48.914;12.566;2023-06-22T10:37:15;7.47;;;4.20;;
37409;SDS011;23275;48.914;12.566;2023-06-22T10:39:40;7.82;;;4.10;;
37409;SDS011;23275;48.914;12.566;2023-06-22T10:42:06;9.18;;;4.28;;
37409;SDS011;23275;48.914;12.566;2023-06-22T10:44:32;9.27;;;4.95;;
37409;SDS011;23275;48.914;12.566;2023-06-22T10:46:57;7.22;;;4.75;;
37409;SDS011;23275;48.914;12.566;2023-06-22T10:49:23;6.40;;;4.45;;
37409;SDS011;23275;48.914;12.566;2023-06-22T10:51:48;8.90;;;4.45;;
37409;SDS011;23275;48.914;12.566;2023-06-22T10:54:14;10.43;;;4.63;;
37409;SDS011;23275;48.914;12.566;2023-06-22T10:56:42;8.48;;;4.28;;
37409;SDS011;23275;48.914;12.566;2023-06-22T10:59:07;10.10;;;4.50;;
37409;SDS011;23275;48.914;12.566;2023-06-22T11:01:33;6.35;;;4.13;;
37409;SDS011;23275;48.914;12.566;2023-06-22T11:03:59;9.50;;;4.15;;
37409;SDS011;23275;48.914;12.566;2023-06-22T11:06:24;5.70;;;3.72;;
37409;SDS011;23275;48.914;12.566;2023-06-22T11:08:50;8.05;;;4.53;;
37409;SDS011;23275;48.914;12.566;2023-06-22T11:11:15;7.05;;;4.43;;
37409;SDS011;23275;48.914;12.566;2023-06-22T11:13:42;9.45;;;4.75;;
37409;SDS011;23275;48.914;12.566;2023-06-22T11:16:09;7.22;;;4.78;;
37409;SDS011;23275;48.914;12.566;2023-06-22T11:18:35;7.63;;;4.38;;
37409;SDS011;23275;48.914;12.566;2023-06-22T11:21:01;12.15;;;4.35;;
37409;SDS011;23275;48.914;12.566;2023-06-22T11:23:26;9.48;;;4.43;;
37409;SDS011;23275;48.914;12.566;2023-06-22T11:25:53;7.72;;;4.45;;
37409;SDS011;23275;48.914;12.566;2023-06-22T11:28:19;7.95;;;4.10;;
37409;SDS011;23275;48.914;12.566;2023-06-22T11:30:45;11.27;;;4.47;;
37409;SDS011;23275;48.914;12.566;2023-06-22T11:33:10;8.50;;;4.28;;
37409;SDS011;23275;48.914;12.566;2023-06-22T11:35:36;11.55;;;5.00;;
37409;SDS011;23275;48.914;12.566;2023-06-22T11:38:02;8.32;;;4.18;;
37409;SDS011;23275;48.914;12.566;2023-06-22T11:40:29;11.82;;;5.45;;
37409;SDS011;23275;48.914;12.566;2023-06-22T11:42:55;9.48;;;4.75;;
37409;SDS011;23275;48.914;12.566;2023-06-22T11:45:21;13.88;;;4.80;;
37409;SDS011;23275;48.914;12.566;2023-06-22T11:47:46;13.82;;;4.80;;
37409;SDS011;23275;48.914;12.566;2023-06-22T11:50:12;7.97;;;4.43;;
37409;SDS011;23275;48.914;12.566;2023-06-22T11:52:38;12.65;;;5.13;;
37409;SDS011;23275;48.914;12.566;2023-06-22T11:55:04;11.40;;;5.88;;
37409;SDS011;23275;48.914;12.566;2023-06-22T11:57:35;10.65;;;5.45;;
37409;SDS011;23275;48.914;12.566;2023-06-22T12:00:02;13.20;;;4.93;;
37409;SDS011;23275;48.914;12.566;2023-06-22T12:02:31;11.43;;;5.45;;
37409;SDS011;23275;48.914;12.566;2023-06-22T12:04:57;11.65;;;5.10;;
37409;SDS011;23275;48.914;12.566;2023-06-22T12:07:23;12.20;;;4.35;;
37409;SDS011;23275;48.914;12.566;2023-06-22T12:09:49;9.93;;;4.72;;
37409;SDS011;23275;48.914;12.566;2023-06-22T12:12:14;11.00;;;4.60;;
37409;SDS011;23275;48.914;12.566;2023-06-22T12:14:40;10.30;;;4.68;;
37409;SDS011;23275;48.914;12.566;2023-06-22T12:17:06;7.75;;;4.30;;
37409;SDS011;23275;48.914;12.566;2023-06-22T12:19:31;10.50;;;4.15;;
37409;SDS011;23275;48.914;12.566;2023-06-22T12:21:57;13.43;;;4.60;;
37409;SDS011;23275;48.914;12.566;2023-06-22T12:24:23;7.93;;;3.88;;
37409;SDS011;23275;48.914;12.566;2023-06-22T12:26:48;9.55;;;3.92;;
37409;SDS011;23275;48.914;12.566;2023-06-22T12:29:14;10.43;;;4.72;;
37409;SDS011;23275;48.914;12.566;2023-06-22T12:31:39;10.43;;;4.45;;
37409;SDS011;23275;48.914;12.566;2023-06-22T12:34:06;13.48;;;8.55;;
37409;SDS011;23275;48.914;12.566;2023-06-22T12:36:32;9.95;;;4.20;;
37409;SDS011;23275;48.914;12.566;2023-06-22T12:38:57;12.23;;;6.07;;
37409;SDS011;23275;48.914;12.566;2023-06-22T12:41:23;14.57;;;4.97;;
37409;SDS011;23275;48.914;12.566;2023-06-22T12:43:48;10.57;;;4.28;;
37409;SDS011;23275;48.914;12.566;2023-06-22T12:46:14;11.65;;;4.15;;
37409;SDS011;23275;48.914;12.566;2023-06-22T12:48:39;11.05;;;5.50;;
37409;SDS011;23275;48.914;12.566;2023-06-22T12:51:08;7.45;;;4.00;;
37409;SDS011;23275;48.914;12.566;2023-06-22T12:53:34;11.05;;;4.80;;
37409;SDS011;23275;48.914;12.566;2023-06-22T12:56:00;9.10;;;4.28;;
37409;SDS011;23275;48.914;12.566;2023-06-22T12:58:26;16.45;;;4.88;;
37409;SDS011;23275;48.914;12.566;2023-06-22T13:00:51;9.32;;;4.43;;
37409;SDS011;23275;48.914;12.566;2023-06-22T13:03:17;10.77;;;3.95;;
37409;SDS011;23275;48.914;12.566;2023-06-22T13:05:42;13.60;;;4.60;;
37409;SDS011;23275;48.914;12.566;2023-06-22T13:08:08;12.55;;;3.97;;
37409;SDS011;23275;48.914;12.566;2023-06-22T13:10:33;14.45;;;4.80;;
37409;SDS011;23275;48.914;12.566;2023-06-22T13:12:59;13.40;;;4.85;;
37409;SDS011;23275;48.914;12.566;2023-06-22T13:15:28;9.07;;;4.05;;
37409;SDS011;23275;48.914;12.566;2023-06-22T13:17:54;9.27;;;4.05;;
37409;SDS011;23275;48.914;12.566;2023-06-22T13:20:20;10.82;;;4.55;;
37409;SDS011;23275;48.914;12.566;2023-06-22T13:22:45;10.32;;;4.45;;
37409;SDS011;23275;48.914;12.566;2023-06-22T13:25:11;8.73;;;3.80;;
37409;SDS011;23275;48.914;12.566;2023-06-22T13:27:38;9.80;;;4.15;;
37409;SDS011;23275;48.914;12.566;2023-06-22T13:30:05;13.15;;;5.18;;
37409;SDS011;23275;48.914;12.566;2023-06-22T13:32:31;12.05;;;4.88;;
37409;SDS011;23275;48.914;12.566;2023-06-22T13:34:56;10.80;;;4.55;;
37409;SDS011;23275;48.914;12.566;2023-06-22T13:37:22;10.25;;;4.45;;
37409;SDS011;23275;48.914;12.566;2023-06-22T13:39:48;10.40;;;4.78;;
37409;SDS011;23275;48.914;12.566;2023-06-22T13:42:13;9.35;;;4.25;;
37409;SDS011;23275;48.914;12.566;2023-06-22T13:44:39;15.50;;;4.45;;
37409;SDS011;23275;48.914;12.566;2023-06-22T13:47:05;14.45;;;4.20;;
37409;SDS011;23275;48.914;12.566;2023-06-22T13:49:31;9.45;;;4.40;;
37409;SDS011;23275;48.914;12.566;2023-06-22T13:51:56;11.13;;;4.50;;
37409;SDS011;23275;48.914;12.566;2023-06-22T13:54:22;9.65;;;4.10;;
37409;SDS011;23275;48.914;12.566;2023-06-22T13:56:48;13.18;;;4.22;;
37409;SDS011;23275;48.914;12.566;2023-06-22T13:59:13;9.57;;;4.07;;
37409;SDS011;23275;48.914;12.566;2023-06-22T14:01:39;13.20;;;4.95;;
37409;SDS011;23275;48.914;12.566;2023-06-22T14:07:32;9.80;;;4.35;;
37409;SDS011;23275;48.914;12.566;2023-06-22T14:09:59;12.05;;;4.40;;
37409;SDS011;23275;48.914;12.566;2023-06-22T14:12:25;12.95;;;4.10;;
37409;SDS011;23275;48.914;12.566;2023-06-22T14:14:52;11.50;;;4.20;;
37409;SDS011;23275;48.914;12.566;2023-06-22T14:17:18;10.23;;;4.38;;
37409;SDS011;23275;48.914;12.566;2023-06-22T14:19:49;8.65;;;4.10;;
37409;SDS011;23275;48.914;12.566;2023-06-22T14:22:18;7.55;;;3.72;;
37409;SDS011;23275;48.914;12.566;2023-06-22T14:24:44;12.88;;;4.47;;
37409;SDS011;23275;48.914;12.566;2023-06-22T14:27:10;10.18;;;4.07;;
37409;SDS011;23275;48.914;12.566;2023-06-22T14:29:36;19.60;;;4.78;;
37409;SDS011;23275;48.914;12.566;2023-06-22T14:32:02;11.05;;;4.55;;
37409;SDS011;23275;48.914;12.566;2023-06-22T14:34:29;16.38;;;4.45;;
37409;SDS011;23275;48.914;12.566;2023-06-22T14:36:55;11.15;;;4.72;;
37409;SDS011;23275;48.914;12.566;2023-06-22T14:39:20;13.32;;;4.30;;